createdAt,value
2023-01-01T00:03:09.044Z,0
2023-01-01T00:06:34.241Z,0
2023-01-01T00:09:59.473Z,0
2023-01-01T00:13:24.733Z,0
2023-01-01T00:16:49.979Z,0
2023-01-01T00:20:15.169Z,0
2023-01-01T00:23:40.381Z,0
2023-01-01T00:27:05.601Z,0
2023-01-01T00:30:30.859Z,0
2023-01-01T00:33:56.078Z,0
2023-01-01T00:37:21.324Z,0
2023-01-01T00:40:46.587Z,0
2023-01-01T00:44:11.805Z,0
2023-01-01T00:47:37.116Z,0
2023-01-01T00:51:02.334Z,0
2023-01-01T00:54:27.560Z,0
2023-01-01T00:57:52.784Z,0
2023-01-01T01:01:18.109Z,0
2023-01-01T01:04:43.292Z,0
2023-01-01T01:08:08.542Z,0
2023-01-01T01:11:33.784Z,0
2023-01-01T01:14:59.024Z,0
2023-01-01T01:18:24.310Z,0
2023-01-01T01:21:49.603Z,0
2023-01-01T01:25:14.812Z,0
2023-01-01T01:28:43.863Z,0
2023-01-01T01:32:05.304Z,0
2023-01-01T01:35:30.535Z,0
2023-01-01T01:38:55.784Z,0
2023-01-01T01:42:21.038Z,0
2023-01-01T01:45:46.333Z,0
2023-01-01T01:49:11.541Z,0
2023-01-01T01:52:36.783Z,0
2023-01-01T01:56:02.088Z,0
2023-01-01T01:59:27.264Z,0
2023-01-01T02:02:52.553Z,0
2023-01-01T02:06:17.747Z,0
2023-01-01T02:09:43.002Z,0
2023-01-01T02:13:08.254Z,0
2023-01-01T02:16:33.488Z,0
2023-01-01T02:19:58.756Z,0
2023-01-01T02:23:23.979Z,0
2023-01-01T02:26:49.238Z,0
2023-01-01T02:30:14.505Z,0
2023-01-01T02:33:39.733Z,0
2023-01-01T02:37:05.014Z,0
2023-01-01T02:40:30.254Z,0
2023-01-01T02:47:18.725Z,0
2023-01-01T02:50:43.964Z,0
2023-01-01T02:54:09.204Z,0
2023-01-01T02:57:34.445Z,0
2023-01-01T03:00:59.695Z,0
2023-01-01T03:04:24.925Z,0
2023-01-01T03:07:50.162Z,0
2023-01-01T03:11:15.425Z,0
2023-01-01T03:14:40.690Z,0
2023-01-01T03:18:06.256Z,0
2023-01-01T03:21:31.512Z,0
2023-01-01T03:24:50.605Z,0
2023-01-01T03:28:15.874Z,0
2023-01-01T03:31:41.134Z,0
2023-01-01T03:35:06.377Z,0
2023-01-01T03:38:31.643Z,0
2023-01-01T03:41:56.833Z,0
2023-01-01T03:45:22.081Z,0
2023-01-01T03:48:47.312Z,0
2023-01-01T03:52:12.565Z,0
2023-01-01T03:55:37.827Z,0
2023-01-01T03:59:03.064Z,0
2023-01-01T04:02:28.357Z,0
2023-01-01T04:05:53.567Z,0
2023-01-01T04:09:18.761Z,0
2023-01-01T04:12:44.042Z,0
2023-01-01T04:16:09.368Z,0
2023-01-01T04:19:34.486Z,0
2023-01-01T04:22:59.747Z,0
2023-01-01T04:26:24.973Z,0
2023-01-01T04:29:50.269Z,0
2023-01-01T04:33:07.269Z,0
2023-01-01T04:36:32.521Z,0
2023-01-01T04:39:57.728Z,0
2023-01-01T04:43:22.977Z,0
2023-01-01T04:46:48.260Z,0
2023-01-01T04:50:13.478Z,0
2023-01-01T04:53:38.728Z,0
2023-01-01T04:57:03.997Z,0
2023-01-01T05:00:29.203Z,0
2023-01-01T05:03:54.490Z,0
2023-01-01T05:07:19.726Z,0
2023-01-01T05:10:44.965Z,0
2023-01-01T05:14:10.245Z,0
2023-01-01T05:17:35.477Z,0
2023-01-01T05:21:00.737Z,0
2023-01-01T05:24:25.946Z,0
2023-01-01T05:27:51.212Z,0
2023-01-01T05:31:16.499Z,0
2023-01-01T05:37:58.749Z,0
2023-01-01T05:41:23.981Z,0
2023-01-01T05:44:49.215Z,0
2023-01-01T05:48:14.486Z,0
2023-01-01T05:54:56.790Z,0
2023-01-01T05:58:22.031Z,0
2023-01-01T06:01:47.273Z,0
2023-01-01T06:05:12.507Z,0
2023-01-01T06:08:37.733Z,0
2023-01-01T06:12:03.008Z,0
2023-01-01T06:15:28.222Z,0
2023-01-01T06:18:53.496Z,0
2023-01-01T06:22:18.722Z,0
2023-01-01T06:25:43.987Z,0
2023-01-01T06:29:09.266Z,0
2023-01-01T06:32:34.497Z,0
2023-01-01T06:35:59.746Z,0
2023-01-01T06:39:24.997Z,0
2023-01-01T06:42:50.258Z,0
2023-01-01T06:46:15.630Z,0
2023-01-01T06:49:40.772Z,0
2023-01-01T06:53:06.086Z,0
2023-01-01T06:56:31.342Z,0
2023-01-01T06:59:56.583Z,0
2023-01-01T07:03:21.863Z,0
2023-01-01T07:06:47.091Z,0
2023-01-01T07:10:12.332Z,0
2023-01-01T07:13:37.623Z,0
2023-01-01T07:17:02.866Z,0
2023-01-01T07:20:28.164Z,0
2023-01-01T07:23:53.407Z,0
2023-01-01T07:27:18.643Z,0
2023-01-01T07:30:43.935Z,0
2023-01-01T07:34:09.124Z,0
2023-01-01T07:37:34.414Z,0
2023-01-01T07:40:59.633Z,0
2023-01-01T07:44:24.865Z,0
2023-01-01T07:47:50.137Z,0
2023-01-01T07:51:15.414Z,0
2023-01-01T07:54:40.709Z,0
2023-01-01T07:58:05.956Z,0
2023-01-01T08:01:31.294Z,0
2023-01-01T08:04:56.509Z,0
2023-01-01T08:08:21.792Z,0
2023-01-01T08:11:47.065Z,0
2023-01-01T08:15:12.330Z,0
2023-01-01T08:18:37.565Z,0
2023-01-01T08:22:02.826Z,6
2023-01-01T08:25:28.057Z,6
2023-01-01T08:28:57.129Z,6
2023-01-01T08:32:18.574Z,6
2023-01-01T08:35:46.587Z,6
2023-01-01T08:39:09.064Z,6
2023-01-01T08:42:34.308Z,6
2023-01-01T08:45:59.589Z,6
2023-01-01T08:49:24.811Z,6
2023-01-01T08:52:50.055Z,6
2023-01-01T08:56:15.296Z,6
2023-01-01T08:59:40.553Z,6
2023-01-01T09:03:05.986Z,11
2023-01-01T09:06:31.096Z,11
2023-01-01T09:09:56.337Z,11
2023-01-01T09:13:21.713Z,11
2023-01-01T09:16:46.963Z,11
2023-01-01T09:20:12.248Z,11
2023-01-01T09:23:37.463Z,11
2023-01-01T09:27:02.735Z,17
2023-01-01T09:30:27.967Z,11
2023-01-01T09:33:53.277Z,17
2023-01-01T09:37:18.547Z,23
2023-01-01T09:40:49.288Z,23
2023-01-01T09:44:09.001Z,23
2023-01-01T09:47:34.239Z,23
2023-01-01T09:50:59.497Z,17
2023-01-01T09:54:24.799Z,23
2023-01-01T09:57:50.056Z,17
2023-01-01T10:01:15.372Z,17
2023-01-01T10:04:40.598Z,17
2023-01-01T10:08:05.898Z,17
2023-01-01T10:11:31.271Z,17
2023-01-01T10:15:00.616Z,17
2023-01-01T10:18:21.702Z,11
2023-01-01T10:21:47.590Z,11
2023-01-01T10:25:12.275Z,17
2023-01-01T10:28:37.633Z,17
2023-01-01T10:32:02.896Z,17
2023-01-01T10:35:30.311Z,17
2023-01-01T10:38:53.376Z,17
2023-01-01T10:42:18.733Z,28
2023-01-01T10:45:44.055Z,23
2023-01-01T10:49:09.260Z,23
2023-01-01T10:52:34.531Z,28
2023-01-01T10:55:59.783Z,28
2023-01-01T10:59:25.016Z,28
2023-01-01T11:02:50.382Z,28
2023-01-01T11:06:15.466Z,23
2023-01-01T11:09:44.946Z,28
2023-01-01T11:13:06.597Z,28
2023-01-01T11:16:31.168Z,28
2023-01-01T11:20:01.443Z,34
2023-01-01T11:23:21.536Z,34
2023-01-01T11:26:52.374Z,28
2023-01-01T11:30:11.949Z,28
2023-01-01T11:33:37.158Z,28
2023-01-01T11:37:02.400Z,28
2023-01-01T11:40:27.573Z,34
2023-01-01T11:43:52.805Z,28
2023-01-01T11:47:18.002Z,34
2023-01-01T11:50:43.222Z,34
2023-01-01T11:54:08.637Z,39
2023-01-01T11:57:33.642Z,39
2023-01-01T12:00:58.874Z,34
2023-01-01T12:04:24.103Z,28
2023-01-01T12:07:49.296Z,28
2023-01-01T12:11:14.612Z,28
2023-01-01T12:14:39.719Z,28
2023-01-01T12:18:04.928Z,34
2023-01-01T12:21:30.147Z,28
2023-01-01T12:24:55.328Z,23
2023-01-01T12:28:20.591Z,23
2023-01-01T12:31:45.753Z,23
2023-01-01T12:35:11.255Z,17
2023-01-01T12:38:36.504Z,23
2023-01-01T12:42:01.735Z,17
2023-01-01T12:45:30.808Z,17
2023-01-01T12:48:52.217Z,17
2023-01-01T12:52:17.435Z,11
2023-01-01T12:55:42.622Z,11
2023-01-01T12:59:07.837Z,11
2023-01-01T13:02:33.288Z,11
2023-01-01T13:05:58.254Z,17
2023-01-01T13:09:23.530Z,11
2023-01-01T13:12:48.853Z,17
2023-01-01T13:16:14.139Z,17
2023-01-01T13:19:39.397Z,17
2023-01-01T13:23:04.713Z,17
2023-01-01T13:26:30.038Z,11
2023-01-01T13:29:55.292Z,11
2023-01-01T13:33:25.409Z,11
2023-01-01T13:36:45.842Z,11
2023-01-01T13:40:11.155Z,6
2023-01-01T13:43:36.443Z,6
2023-01-01T13:47:01.864Z,6
2023-01-01T13:50:27.049Z,6
2023-01-01T13:53:52.344Z,6
2023-01-01T13:57:17.642Z,6
2023-01-01T14:00:46.631Z,6
2023-01-01T14:04:08.257Z,6
2023-01-01T14:07:50.516Z,6
2023-01-01T14:10:58.840Z,6
2023-01-01T14:14:24.103Z,6
2023-01-01T14:17:49.359Z,0
2023-01-01T14:21:14.655Z,0
2023-01-01T14:24:39.913Z,0
2023-01-01T14:28:05.299Z,0
2023-01-01T15:05:10.701Z,0
2023-01-01T15:08:35.871Z,0
2023-01-01T15:12:01.142Z,0
2023-01-01T15:15:26.388Z,0
2023-01-01T15:18:51.606Z,0
2023-01-01T15:22:17.026Z,0
2023-01-01T15:25:42.149Z,0
2023-01-01T15:29:07.408Z,0
2023-01-01T15:32:32.689Z,0
2023-01-01T15:35:57.960Z,0
2023-01-01T15:39:23.315Z,0
2023-01-01T15:42:48.564Z,0
2023-01-01T15:46:13.882Z,0
2023-01-01T15:49:39.120Z,0
2023-01-01T15:53:04.415Z,0
2023-01-01T15:56:29.699Z,0
2023-01-01T15:59:54.927Z,0
2023-01-01T16:03:20.225Z,0
2023-01-01T16:06:45.904Z,0
2023-01-01T16:10:11.177Z,0
2023-01-01T16:13:36.855Z,0
2023-01-01T16:17:02.250Z,0
2023-01-01T16:20:27.425Z,0
2023-01-01T16:23:52.787Z,0
2023-01-01T16:27:18.716Z,0
2023-01-01T16:30:44.043Z,0
2023-01-01T16:34:09.226Z,0
2023-01-01T16:37:34.501Z,0
2023-01-01T16:40:59.780Z,0
2023-01-01T16:44:24.989Z,0
2023-01-01T16:47:50.270Z,0
2023-01-01T16:51:15.501Z,0
2023-01-01T16:54:40.768Z,0
2023-01-01T16:58:47.198Z,0
2023-01-01T17:01:31.563Z,0
2023-01-01T17:04:56.677Z,0
2023-01-01T17:08:21.855Z,0
2023-01-01T17:11:47.101Z,0
2023-01-01T17:15:12.434Z,0
2023-01-01T17:22:03.019Z,0
2023-01-01T17:25:28.284Z,0
2023-01-01T17:28:59.937Z,0
2023-01-01T17:32:18.851Z,0
2023-01-01T17:35:44.110Z,0
2023-01-01T17:39:09.505Z,0
2023-01-01T17:42:34.635Z,0
2023-01-01T17:45:59.989Z,0
2023-01-01T17:49:25.139Z,0
2023-01-01T17:52:50.434Z,0
2023-01-01T17:56:17.566Z,0
2023-01-01T17:59:43.700Z,0
2023-01-01T18:03:09.045Z,0
2023-01-01T18:06:37.287Z,0
2023-01-01T18:09:59.286Z,0
2023-01-01T18:13:24.457Z,0
2023-01-01T18:16:49.588Z,0
2023-01-01T18:20:14.794Z,0
2023-01-01T18:23:40.218Z,0
2023-01-01T18:27:05.109Z,0
2023-01-01T18:30:30.280Z,0
2023-01-01T18:33:55.437Z,0
2023-01-01T18:37:20.593Z,0
2023-01-01T18:40:45.734Z,0
2023-01-01T18:44:10.901Z,0
2023-01-01T18:47:36.083Z,0
2023-01-01T18:51:01.240Z,0
2023-01-01T18:54:26.397Z,0
2023-01-01T18:57:51.577Z,0
2023-01-01T19:01:16.882Z,0
2023-01-01T19:04:41.954Z,0
2023-01-01T19:08:07.212Z,0
2023-01-01T19:11:32.281Z,0
2023-01-01T19:14:57.442Z,0
2023-01-01T19:18:22.631Z,0
2023-01-01T19:21:51.424Z,0
2023-01-01T19:25:12.963Z,0
2023-01-01T19:28:38.127Z,0
2023-01-01T19:32:03.291Z,0
2023-01-01T19:35:28.490Z,0
2023-01-01T19:38:53.689Z,0
2023-01-01T19:42:18.848Z,0
2023-01-01T19:45:44.016Z,0
2023-01-01T19:49:09.195Z,0
2023-01-01T19:52:34.358Z,0
2023-01-01T19:55:59.571Z,0
2023-01-01T19:59:31.077Z,0
2023-01-01T20:02:50.330Z,0
2023-01-01T20:06:15.301Z,0
2023-01-01T20:09:40.639Z,0
2023-01-01T20:13:05.889Z,0
2023-01-01T20:16:31.132Z,0
2023-01-01T20:20:00.846Z,0
2023-01-01T20:23:26.103Z,0
2023-01-01T20:26:51.412Z,0
2023-01-01T20:30:16.691Z,0
2023-01-01T20:33:41.963Z,0
2023-01-01T20:37:07.235Z,0
2023-01-01T20:40:32.512Z,0
2023-01-01T20:43:57.925Z,0
2023-01-01T20:47:23.231Z,0
2023-01-01T20:50:48.444Z,0
2023-01-01T20:54:13.691Z,0
2023-01-01T20:57:38.932Z,0
2023-01-01T21:01:04.327Z,0
2023-01-01T21:04:29.509Z,0
2023-01-01T21:07:54.771Z,0
2023-01-01T21:11:20.002Z,0
2023-01-01T21:14:45.323Z,0
2023-01-01T21:18:10.543Z,0
2023-01-01T21:21:36.185Z,0
2023-01-01T21:25:17.059Z,0
2023-01-01T21:28:26.751Z,0
2023-01-01T21:31:52.073Z,0
2023-01-01T21:35:17.383Z,0
2023-01-01T21:38:42.875Z,0
2023-01-01T21:42:08.005Z,0
2023-01-01T21:45:33.455Z,0
2023-01-01T21:48:58.653Z,0
2023-01-01T21:52:23.948Z,0
2023-01-01T21:55:49.302Z,0
2023-01-01T21:59:14.501Z,0
2023-01-01T22:02:39.949Z,0
2023-01-01T22:06:04.964Z,0
2023-01-01T22:09:30.214Z,0
2023-01-01T22:12:55.458Z,0
2023-01-01T22:16:20.765Z,0
2023-01-01T22:19:45.907Z,0
2023-01-01T22:23:11.163Z,0
2023-01-01T22:26:36.394Z,0
2023-01-01T22:30:01.710Z,0
2023-01-01T22:33:26.928Z,0
2023-01-01T22:36:52.138Z,0
2023-01-01T22:40:17.393Z,0
2023-01-01T22:43:42.687Z,0
2023-01-01T22:47:07.959Z,0
2023-01-01T22:50:33.180Z,0
2023-01-01T22:53:58.423Z,0
2023-01-01T22:57:23.632Z,0
2023-01-01T23:00:48.862Z,0
2023-01-01T23:04:14.155Z,0
2023-01-01T23:07:41.821Z,0
2023-01-01T23:11:04.617Z,0
2023-01-01T23:14:29.858Z,0
2023-01-01T23:17:55.103Z,0
2023-01-01T23:21:26.239Z,0
2023-01-01T23:24:45.575Z,0
2023-01-01T23:28:10.854Z,0
2023-01-01T23:31:36.148Z,0
2023-01-01T23:35:01.363Z,0
2023-01-01T23:38:26.590Z,0
2023-01-01T23:41:51.783Z,0
2023-01-01T23:45:17.031Z,0
2023-01-01T23:48:42.268Z,0
2023-01-01T23:52:07.516Z,0
2023-01-01T23:55:32.780Z,0
2023-01-01T23:58:57.957Z,0
